sensor_id;sensor_type;location;lat;lon;timestamp;P1;durP1;ratioP1;P2;durP2;ratioP2
62740;SDS011;48790;55.656;37.702;2022-07-29T00:02:35;4.13;;;2.22;;
62740;SDS011;48790;55.656;37.702;2022-07-29T00:05:02;4.80;;;2.35;;
62740;SDS011;48790;55.656;37.702;2022-07-29T00:07:29;4.50;;;2.20;;
62740;SDS011;48790;55.656;37.702;2022-07-29T00:09:55;6.53;;;2.40;;
62740;SDS011;48790;55.656;37.702;2022-07-29T00:12:22;4.68;;;2.50;;
62740;SDS011;48790;55.656;37.702;2022-07-29T00:14:49;7.97;;;3.22;;
62740;SDS011;48790;55.656;37.702;2022-07-29T00:17:15;6.35;;;2.35;;
62740;SDS011;48790;55.656;37.702;2022-07-29T00:19:45;4.43;;;2.20;;
62740;SDS011;48790;55.656;37.702;2022-07-29T00:22:11;5.30;;;2.40;;
62740;SDS011;48790;55.656;37.702;2022-07-29T00:24:38;3.92;;;2.60;;
62740;SDS011;48790;55.656;37.702;2022-07-29T00:27:04;4.35;;;2.13;;
62740;SDS011;48790;55.656;37.702;2022-07-29T00:29:30;6.00;;;2.17;;
62740;SDS011;48790;55.656;37.702;2022-07-29T00:31:56;8.57;;;2.30;;
62740;SDS011;48790;55.656;37.702;2022-07-29T00:34:22;5.90;;;3.00;;
62740;SDS011;48790;55.656;37.702;2022-07-29T00:37:06;3.97;;;2.28;;
62740;SDS011;48790;55.656;37.702;2022-07-29T00:39:32;5.57;;;2.80;;
62740;SDS011;48790;55.656;37.702;2022-07-29T00:42:04;8.40;;;2.47;;
62740;SDS011;48790;55.656;37.702;2022-07-29T00:44:35;4.85;;;2.53;;
62740;SDS011;48790;55.656;37.702;2022-07-29T00:47:05;5.20;;;2.80;;
62740;SDS011;48790;55.656;37.702;2022-07-29T00:49:31;7.47;;;2.50;;
62740;SDS011;48790;55.656;37.702;2022-07-29T00:51:58;4.85;;;2.40;;
62740;SDS011;48790;55.656;37.702;2022-07-29T00:54:26;6.00;;;2.63;;
62740;SDS011;48790;55.656;37.702;2022-07-29T00:56:58;14.55;;;2.90;;
62740;SDS011;48790;55.656;37.702;2022-07-29T00:59:25;4.72;;;2.38;;
62740;SDS011;48790;55.656;37.702;2022-07-29T01:01:52;9.13;;;2.85;;
62740;SDS011;48790;55.656;37.702;2022-07-29T01:04:22;7.50;;;2.85;;
62740;SDS011;48790;55.656;37.702;2022-07-29T01:06:48;6.93;;;2.90;;
62740;SDS011;48790;55.656;37.702;2022-07-29T01:09:15;6.88;;;2.63;;
62740;SDS011;48790;55.656;37.702;2022-07-29T01:11:41;8.73;;;2.90;;
62740;SDS011;48790;55.656;37.702;2022-07-29T01:14:08;7.70;;;2.75;;
62740;SDS011;48790;55.656;37.702;2022-07-29T01:17:18;7.32;;;2.78;;
62740;SDS011;48790;55.656;37.702;2022-07-29T01:22:49;6.18;;;2.50;;
62740;SDS011;48790;55.656;37.702;2022-07-29T01:30:55;9.18;;;2.70;;
62740;SDS011;48790;55.656;37.702;2022-07-29T01:33:22;7.93;;;2.60;;
62740;SDS011;48790;55.656;37.702;2022-07-29T01:36:10;6.72;;;2.88;;
62740;SDS011;48790;55.656;37.702;2022-07-29T01:41:41;6.72;;;2.70;;
62740;SDS011;48790;55.656;37.702;2022-07-29T01:44:27;9.07;;;2.90;;
62740;SDS011;48790;55.656;37.702;2022-07-29T01:47:10;10.05;;;3.30;;
62740;SDS011;48790;55.656;37.702;2022-07-29T01:49:41;10.00;;;2.78;;
62740;SDS011;48790;55.656;37.702;2022-07-29T01:52:13;7.85;;;2.90;;
62740;SDS011;48790;55.656;37.702;2022-07-29T01:54:45;8.52;;;2.83;;
62740;SDS011;48790;55.656;37.702;2022-07-29T01:57:18;7.17;;;2.67;;
62740;SDS011;48790;55.656;37.702;2022-07-29T01:59:46;13.30;;;3.17;;
62740;SDS011;48790;55.656;37.702;2022-07-29T02:02:13;7.53;;;3.08;;
62740;SDS011;48790;55.656;37.702;2022-07-29T02:04:41;6.35;;;3.10;;
62740;SDS011;48790;55.656;37.702;2022-07-29T02:07:12;16.80;;;3.25;;
62740;SDS011;48790;55.656;37.702;2022-07-29T02:09:40;8.45;;;3.45;;
62740;SDS011;48790;55.656;37.702;2022-07-29T02:12:12;7.53;;;3.20;;
62740;SDS011;48790;55.656;37.702;2022-07-29T02:14:43;7.00;;;3.10;;
62740;SDS011;48790;55.656;37.702;2022-07-29T02:17:12;3.97;;;3.00;;
62740;SDS011;48790;55.656;37.702;2022-07-29T02:19:39;10.25;;;3.20;;
62740;SDS011;48790;55.656;37.702;2022-07-29T02:22:06;13.63;;;3.28;;
62740;SDS011;48790;55.656;37.702;2022-07-29T02:24:33;12.32;;;3.60;;
62740;SDS011;48790;55.656;37.702;2022-07-29T02:27:06;8.95;;;3.50;;
62740;SDS011;48790;55.656;37.702;2022-07-29T02:29:33;10.57;;;3.10;;
62740;SDS011;48790;55.656;37.702;2022-07-29T02:32:00;8.02;;;3.45;;
62740;SDS011;48790;55.656;37.702;2022-07-29T02:34:28;10.88;;;3.47;;
62740;SDS011;48790;55.656;37.702;2022-07-29T02:36:55;8.05;;;3.33;;
62740;SDS011;48790;55.656;37.702;2022-07-29T02:39:26;11.27;;;3.50;;
62740;SDS011;48790;55.656;37.702;2022-07-29T02:41:57;8.68;;;3.20;;
62740;SDS011;48790;55.656;37.702;2022-07-29T02:44:31;12.63;;;3.30;;
62740;SDS011;48790;55.656;37.702;2022-07-29T02:49:53;6.57;;;3.35;;
62740;SDS011;48790;55.656;37.702;2022-07-29T02:55:10;9.20;;;3.30;;
62740;SDS011;48790;55.656;37.702;2022-07-29T02:57:41;7.95;;;3.58;;
62740;SDS011;48790;55.656;37.702;2022-07-29T03:00:09;10.82;;;3.55;;
62740;SDS011;48790;55.656;37.702;2022-07-29T03:02:38;11.82;;;3.70;;
62740;SDS011;48790;55.656;37.702;2022-07-29T03:05:11;8.90;;;3.60;;
62740;SDS011;48790;55.656;37.702;2022-07-29T03:07:40;13.20;;;3.25;;
62740;SDS011;48790;55.656;37.702;2022-07-29T03:10:09;12.63;;;3.80;;
62740;SDS011;48790;55.656;37.702;2022-07-29T03:12:36;10.35;;;3.95;;
62740;SDS011;48790;55.656;37.702;2022-07-29T03:15:04;9.00;;;3.53;;
62740;SDS011;48790;55.656;37.702;2022-07-29T03:17:33;13.70;;;3.65;;
62740;SDS011;48790;55.656;37.702;2022-07-29T03:20:06;9.18;;;3.53;;
62740;SDS011;48790;55.656;37.702;2022-07-29T03:22:33;12.48;;;3.05;;
62740;SDS011;48790;55.656;37.702;2022-07-29T03:25:07;8.32;;;3.13;;
62740;SDS011;48790;55.656;37.702;2022-07-29T03:27:34;6.65;;;3.08;;
62740;SDS011;48790;55.656;37.702;2022-07-29T03:30:00;10.32;;;3.20;;
62740;SDS011;48790;55.656;37.702;2022-07-29T03:32:28;5.13;;;2.78;;
62740;SDS011;48790;55.656;37.702;2022-07-29T03:34:54;9.10;;;2.70;;
62740;SDS011;48790;55.656;37.702;2022-07-29T03:37:20;7.75;;;2.70;;
62740;SDS011;48790;55.656;37.702;2022-07-29T03:39:46;9.55;;;2.75;;
62740;SDS011;48790;55.656;37.702;2022-07-29T03:42:13;6.95;;;2.90;;
62740;SDS011;48790;55.656;37.702;2022-07-29T03:44:41;10.43;;;3.17;;
62740;SDS011;48790;55.656;37.702;2022-07-29T03:47:09;12.05;;;2.88;;
62740;SDS011;48790;55.656;37.702;2022-07-29T03:49:36;7.45;;;2.70;;
62740;SDS011;48790;55.656;37.702;2022-07-29T03:52:03;9.48;;;3.25;;
62740;SDS011;48790;55.656;37.702;2022-07-29T03:54:30;6.75;;;2.95;;
62740;SDS011;48790;55.656;37.702;2022-07-29T03:56:56;13.98;;;3.00;;
62740;SDS011;48790;55.656;37.702;2022-07-29T03:59:23;5.03;;;2.53;;
62740;SDS011;48790;55.656;37.702;2022-07-29T04:01:49;5.25;;;3.00;;
62740;SDS011;48790;55.656;37.702;2022-07-29T04:04:16;12.50;;;2.80;;
62740;SDS011;48790;55.656;37.702;2022-07-29T04:06:45;8.90;;;2.60;;
62740;SDS011;48790;55.656;37.702;2022-07-29T04:09:12;11.95;;;2.65;;
62740;SDS011;48790;55.656;37.702;2022-07-29T04:11:39;8.50;;;2.42;;
62740;SDS011;48790;55.656;37.702;2022-07-29T04:14:05;8.18;;;2.38;;
62740;SDS011;48790;55.656;37.702;2022-07-29T04:16:31;12.60;;;2.50;;
62740;SDS011;48790;55.656;37.702;2022-07-29T04:18:57;8.02;;;2.75;;
62740;SDS011;48790;55.656;37.702;2022-07-29T04:21:28;10.88;;;2.33;;
62740;SDS011;48790;55.656;37.702;2022-07-29T04:23:59;8.13;;;2.72;;
62740;SDS011;48790;55.656;37.702;2022-07-29T04:26:25;11.38;;;2.83;;
62740;SDS011;48790;55.656;37.702;2022-07-29T04:28:51;5.78;;;2.40;;
62740;SDS011;48790;55.656;37.702;2022-07-29T04:31:17;8.98;;;2.67;;
62740;SDS011;48790;55.656;37.702;2022-07-29T04:33:44;9.45;;;2.72;;
62740;SDS011;48790;55.656;37.702;2022-07-29T04:36:22;8.40;;;2.65;;
62740;SDS011;48790;55.656;37.702;2022-07-29T04:38:51;7.78;;;2.25;;
62740;SDS011;48790;55.656;37.702;2022-07-29T04:41:19;8.50;;;2.78;;
62740;SDS011;48790;55.656;37.702;2022-07-29T04:43:47;6.85;;;2.58;;
62740;SDS011;48790;55.656;37.702;2022-07-29T04:46:14;6.07;;;2.60;;
62740;SDS011;48790;55.656;37.702;2022-07-29T04:48:41;10.00;;;2.55;;
62740;SDS011;48790;55.656;37.702;2022-07-29T04:51:09;7.88;;;2.58;;
62740;SDS011;48790;55.656;37.702;2022-07-29T04:53:37;4.88;;;2.47;;
62740;SDS011;48790;55.656;37.702;2022-07-29T04:56:03;11.93;;;2.50;;
62740;SDS011;48790;55.656;37.702;2022-07-29T04:58:29;12.70;;;2.47;;
62740;SDS011;48790;55.656;37.702;2022-07-29T05:00:55;10.50;;;2.33;;
62740;SDS011;48790;55.656;37.702;2022-07-29T05:03:23;9.00;;;2.47;;
62740;SDS011;48790;55.656;37.702;2022-07-29T05:05:53;7.20;;;2.20;;
62740;SDS011;48790;55.656;37.702;2022-07-29T05:08:20;9.25;;;2.65;;
62740;SDS011;48790;55.656;37.702;2022-07-29T05:10:46;7.53;;;2.35;;
62740;SDS011;48790;55.656;37.702;2022-07-29T05:13:15;7.85;;;2.10;;
62740;SDS011;48790;55.656;37.702;2022-07-29T05:15:41;5.88;;;2.00;;
62740;SDS011;48790;55.656;37.702;2022-07-29T05:18:12;10.55;;;2.42;;
62740;SDS011;48790;55.656;37.702;2022-07-29T05:20:44;8.93;;;2.13;;
62740;SDS011;48790;55.656;37.702;2022-07-29T05:23:13;8.35;;;2.63;;
62740;SDS011;48790;55.656;37.702;2022-07-29T05:25:42;7.10;;;2.60;;
62740;SDS011;48790;55.656;37.702;2022-07-29T05:28:12;10.80;;;2.33;;
62740;SDS011;48790;55.656;37.702;2022-07-29T05:30:38;9.25;;;2.40;;
62740;SDS011;48790;55.656;37.702;2022-07-29T05:33:06;7.93;;;2.00;;
62740;SDS011;48790;55.656;37.702;2022-07-29T05:35:32;10.35;;;2.30;;
62740;SDS011;48790;55.656;37.702;2022-07-29T05:38:00;10.80;;;2.42;;
62740;SDS011;48790;55.656;37.702;2022-07-29T05:40:26;9.43;;;2.50;;
62740;SDS011;48790;55.656;37.702;2022-07-29T05:42:54;11.18;;;2.30;;
62740;SDS011;48790;55.656;37.702;2022-07-29T05:45:22;7.03;;;1.90;;
62740;SDS011;48790;55.656;37.702;2022-07-29T05:47:51;11.25;;;2.45;;
62740;SDS011;48790;55.656;37.702;2022-07-29T05:50:18;9.32;;;2.42;;
62740;SDS011;48790;55.656;37.702;2022-07-29T05:52:44;6.60;;;2.00;;
62740;SDS011;48790;55.656;37.702;2022-07-29T05:55:10;7.20;;;1.90;;
62740;SDS011;48790;55.656;37.702;2022-07-29T05:57:40;11.93;;;2.08;;
62740;SDS011;48790;55.656;37.702;2022-07-29T06:00:12;8.05;;;1.98;;
62740;SDS011;48790;55.656;37.702;2022-07-29T06:02:44;7.75;;;2.20;;
62740;SDS011;48790;55.656;37.702;2022-07-29T06:05:12;6.10;;;2.28;;
62740;SDS011;48790;55.656;37.702;2022-07-29T06:07:38;6.72;;;2.10;;
62740;SDS011;48790;55.656;37.702;2022-07-29T06:10:06;9.00;;;2.15;;
62740;SDS011;48790;55.656;37.702;2022-07-29T06:12:35;6.22;;;2.05;;
62740;SDS011;48790;55.656;37.702;2022-07-29T06:15:05;4.45;;;2.00;;
62740;SDS011;48790;55.656;37.702;2022-07-29T06:17:33;4.80;;;2.22;;
62740;SDS011;48790;55.656;37.702;2022-07-29T06:19:59;8.38;;;1.63;;
62740;SDS011;48790;55.656;37.702;2022-07-29T06:22:26;9.93;;;1.90;;
62740;SDS011;48790;55.656;37.702;2022-07-29T06:24:56;8.45;;;1.90;;
62740;SDS011;48790;55.656;37.702;2022-07-29T06:27:22;4.85;;;1.40;;
62740;SDS011;48790;55.656;37.702;2022-07-29T06:29:51;6.13;;;1.83;;
62740;SDS011;48790;55.656;37.702;2022-07-29T06:32:17;5.22;;;1.50;;
62740;SDS011;48790;55.656;37.702;2022-07-29T06:34:43;7.20;;;1.70;;
62740;SDS011;48790;55.656;37.702;2022-07-29T06:37:09;8.85;;;1.80;;
62740;SDS011;48790;55.656;37.702;2022-07-29T06:39:37;7.07;;;2.20;;
62740;SDS011;48790;55.656;37.702;2022-07-29T06:42:04;8.30;;;2.00;;
62740;SDS011;48790;55.656;37.702;2022-07-29T06:44:30;7.80;;;1.85;;
62740;SDS011;48790;55.656;37.702;2022-07-29T06:47:01;4.63;;;1.70;;
62740;SDS011;48790;55.656;37.702;2022-07-29T06:49:27;4.22;;;1.35;;
62740;SDS011;48790;55.656;37.702;2022-07-29T06:51:54;3.85;;;1.80;;
62740;SDS011;48790;55.656;37.702;2022-07-29T06:54:20;5.93;;;1.98;;
62740;SDS011;48790;55.656;37.702;2022-07-29T06:56:47;4.95;;;1.70;;
62740;SDS011;48790;55.656;37.702;2022-07-29T06:59:13;7.88;;;1.88;;
62740;SDS011;48790;55.656;37.702;2022-07-29T07:01:40;7.57;;;1.80;;
62740;SDS011;48790;55.656;37.702;2022-07-29T07:04:07;6.55;;;1.70;;
62740;SDS011;48790;55.656;37.702;2022-07-29T07:06:36;5.72;;;1.80;;
62740;SDS011;48790;55.656;37.702;2022-07-29T07:09:03;4.18;;;1.50;;
62740;SDS011;48790;55.656;37.702;2022-07-29T07:11:29;7.82;;;1.50;;
62740;SDS011;48790;55.656;37.702;2022-07-29T07:13:57;6.35;;;1.60;;
62740;SDS011;48790;55.656;37.702;2022-07-29T07:16:26;7.75;;;1.92;;
62740;SDS011;48790;55.656;37.702;2022-07-29T07:18:52;7.88;;;1.40;;
62740;SDS011;48790;55.656;37.702;2022-07-29T07:21:19;4.00;;;1.65;;
62740;SDS011;48790;55.656;37.702;2022-07-29T07:23:47;10.52;;;1.70;;
62740;SDS011;48790;55.656;37.702;2022-07-29T07:26:13;4.78;;;1.50;;
62740;SDS011;48790;55.656;37.702;2022-07-29T07:28:39;6.50;;;1.35;;
62740;SDS011;48790;55.656;37.702;2022-07-29T07:31:05;9.32;;;2.10;;
62740;SDS011;48790;55.656;37.702;2022-07-29T07:33:31;7.95;;;1.60;;
62740;SDS011;48790;55.656;37.702;2022-07-29T07:35:57;7.68;;;1.77;;
62740;SDS011;48790;55.656;37.702;2022-07-29T07:38:23;6.47;;;1.75;;
62740;SDS011;48790;55.656;37.702;2022-07-29T07:40:49;9.60;;;1.95;;
62740;SDS011;48790;55.656;37.702;2022-07-29T07:43:15;7.40;;;1.80;;
62740;SDS011;48790;55.656;37.702;2022-07-29T07:45:43;6.40;;;1.48;;
62740;SDS011;48790;55.656;37.702;2022-07-29T07:48:09;6.05;;;1.85;;
62740;SDS011;48790;55.656;37.702;2022-07-29T07:50:36;3.53;;;1.73;;
62740;SDS011;48790;55.656;37.702;2022-07-29T07:53:02;5.38;;;1.73;;
62740;SDS011;48790;55.656;37.702;2022-07-29T07:55:28;6.53;;;1.50;;
62740;SDS011;48790;55.656;37.702;2022-07-29T07:57:57;7.43;;;1.65;;
62740;SDS011;48790;55.656;37.702;2022-07-29T08:00:24;4.78;;;1.45;;
62740;SDS011;48790;55.656;37.702;2022-07-29T08:02:52;6.38;;;1.50;;
62740;SDS011;48790;55.656;37.702;2022-07-29T08:05:18;2.55;;;1.40;;
62740;SDS011;48790;55.656;37.702;2022-07-29T08:07:45;7.60;;;1.77;;
62740;SDS011;48790;55.656;37.702;2022-07-29T08:10:12;8.77;;;1.77;;
62740;SDS011;48790;55.656;37.702;2022-07-29T08:12:39;2.83;;;1.42;;
62740;SDS011;48790;55.656;37.702;2022-07-29T08:15:05;3.95;;;1.48;;
62740;SDS011;48790;55.656;37.702;2022-07-29T08:17:33;9.77;;;2.45;;
62740;SDS011;48790;55.656;37.702;2022-07-29T08:19:59;18.75;;;6.47;;
62740;SDS011;48790;55.656;37.702;2022-07-29T08:22:25;9.93;;;1.63;;
62740;SDS011;48790;55.656;37.702;2022-07-29T08:24:51;4.47;;;1.17;;
62740;SDS011;48790;55.656;37.702;2022-07-29T08:27:21;3.05;;;1.60;;
62740;SDS011;48790;55.656;37.702;2022-07-29T08:29:49;8.27;;;1.50;;
62740;SDS011;48790;55.656;37.702;2022-07-29T08:32:16;6.05;;;1.67;;
62740;SDS011;48790;55.656;37.702;2022-07-29T08:34:42;3.65;;;1.40;;
62740;SDS011;48790;55.656;37.702;2022-07-29T08:37:12;4.28;;;1.60;;
62740;SDS011;48790;55.656;37.702;2022-07-29T08:39:39;6.88;;;1.50;;
62740;SDS011;48790;55.656;37.702;2022-07-29T08:42:05;4.88;;;1.50;;
62740;SDS011;48790;55.656;37.702;2022-07-29T08:44:31;2.63;;;1.23;;
62740;SDS011;48790;55.656;37.702;2022-07-29T08:46:59;3.70;;;1.17;;
62740;SDS011;48790;55.656;37.702;2022-07-29T08:49:25;2.88;;;1.30;;
62740;SDS011;48790;55.656;37.702;2022-07-29T08:51:51;3.13;;;1.30;;
62740;SDS011;48790;55.656;37.702;2022-07-29T08:54:20;5.10;;;1.40;;
62740;SDS011;48790;55.656;37.702;2022-07-29T08:56:51;3.47;;;1.20;;
62740;SDS011;48790;55.656;37.702;2022-07-29T08:59:19;5.28;;;1.27;;
62740;SDS011;48790;55.656;37.702;2022-07-29T09:01:46;5.93;;;1.50;;
62740;SDS011;48790;55.656;37.702;2022-07-29T09:04:13;4.13;;;1.30;;
62740;SDS011;48790;55.656;37.702;2022-07-29T09:06:45;9.35;;;1.50;;
62740;SDS011;48790;55.656;37.702;2022-07-29T09:09:13;3.00;;;1.45;;
62740;SDS011;48790;55.656;37.702;2022-07-29T09:11:39;4.43;;;1.25;;
62740;SDS011;48790;55.656;37.702;2022-07-29T09:14:06;2.55;;;1.27;;
62740;SDS011;48790;55.656;37.702;2022-07-29T09:16:53;3.08;;;1.20;;
62740;SDS011;48790;55.656;37.702;2022-07-29T09:19:21;3.30;;;1.27;;
62740;SDS011;48790;55.656;37.702;2022-07-29T09:21:51;3.92;;;1.48;;
62740;SDS011;48790;55.656;37.702;2022-07-29T09:24:25;5.25;;;1.30;;
62740;SDS011;48790;55.656;37.702;2022-07-29T09:26:53;3.42;;;1.40;;
62740;SDS011;48790;55.656;37.702;2022-07-29T09:29:20;3.25;;;1.17;;
62740;SDS011;48790;55.656;37.702;2022-07-29T09:31:52;4.82;;;1.60;;
62740;SDS011;48790;55.656;37.702;2022-07-29T09:34:24;5.85;;;1.50;;
62740;SDS011;48790;55.656;37.702;2022-07-29T09:36:52;4.22;;;1.20;;
62740;SDS011;48790;55.656;37.702;2022-07-29T09:42:03;4.65;;;1.10;;
62740;SDS011;48790;55.656;37.702;2022-07-29T09:44:47;7.13;;;1.20;;
62740;SDS011;48790;55.656;37.702;2022-07-29T09:47:17;6.40;;;1.50;;
62740;SDS011;48790;55.656;37.702;2022-07-29T09:49:50;3.00;;;1.23;;
62740;SDS011;48790;55.656;37.702;2022-07-29T09:52:22;3.15;;;1.33;;
62740;SDS011;48790;55.656;37.702;2022-07-29T09:54:52;5.80;;;1.60;;
62740;SDS011;48790;55.656;37.702;2022-07-29T09:57:26;5.72;;;1.40;;
62740;SDS011;48790;55.656;37.702;2022-07-29T09:59:57;3.85;;;1.25;;
62740;SDS011;48790;55.656;37.702;2022-07-29T10:02:41;3.60;;;1.27;;
62740;SDS011;48790;55.656;37.702;2022-07-29T10:05:17;5.03;;;1.35;;
62740;SDS011;48790;55.656;37.702;2022-07-29T10:07:47;5.90;;;1.30;;
62740;SDS011;48790;55.656;37.702;2022-07-29T10:12:52;2.42;;;1.05;;
62740;SDS011;48790;55.656;37.702;2022-07-29T10:15:21;3.60;;;1.30;;
62740;SDS011;48790;55.656;37.702;2022-07-29T10:17:47;5.93;;;1.30;;
62740;SDS011;48790;55.656;37.702;2022-07-29T10:20:15;2.05;;;1.35;;
62740;SDS011;48790;55.656;37.702;2022-07-29T10:22:41;8.10;;;3.03;;
62740;SDS011;48790;55.656;37.702;2022-07-29T10:25:08;4.05;;;1.35;;
62740;SDS011;48790;55.656;37.702;2022-07-29T10:27:35;2.15;;;1.20;;
62740;SDS011;48790;55.656;37.702;2022-07-29T10:30:06;2.38;;;0.90;;
62740;SDS011;48790;55.656;37.702;2022-07-29T10:32:54;3.35;;;1.20;;
62740;SDS011;48790;55.656;37.702;2022-07-29T10:43:54;6.28;;;1.30;;
62740;SDS011;48790;55.656;37.702;2022-07-29T10:46:25;1.85;;;1.00;;
62740;SDS011;48790;55.656;37.702;2022-07-29T10:49:15;5.10;;;1.08;;
62740;SDS011;48790;55.656;37.702;2022-07-29T10:51:56;5.03;;;1.10;;
62740;SDS011;48790;55.656;37.702;2022-07-29T10:57:15;1.63;;;1.20;;
62740;SDS011;48790;55.656;37.702;2022-07-29T11:07:24;1.95;;;1.20;;
62740;SDS011;48790;55.656;37.702;2022-07-29T11:15:13;6.53;;;1.60;;
62740;SDS011;48790;55.656;37.702;2022-07-29T11:20:47;1.63;;;1.42;;
62740;SDS011;48790;55.656;37.702;2022-07-29T11:23:22;2.92;;;1.20;;
62740;SDS011;48790;55.656;37.702;2022-07-29T11:31:38;4.20;;;1.27;;
62740;SDS011;48790;55.656;37.702;2022-07-29T11:44:54;6.47;;;1.33;;
62740;SDS011;48790;55.656;37.702;2022-07-29T11:47:22;3.38;;;1.40;;
62740;SDS011;48790;55.656;37.702;2022-07-29T11:49:52;2.67;;;1.30;;
62740;SDS011;48790;55.656;37.702;2022-07-29T11:52:20;4.63;;;1.55;;
62740;SDS011;48790;55.656;37.702;2022-07-29T11:54:48;7.10;;;1.52;;
62740;SDS011;48790;55.656;37.702;2022-07-29T11:57:19;2.17;;;1.30;;
62740;SDS011;48790;55.656;37.702;2022-07-29T12:02:14;3.70;;;1.27;;
62740;SDS011;48790;55.656;37.702;2022-07-29T12:04:54;2.95;;;1.20;;
62740;SDS011;48790;55.656;37.702;2022-07-29T12:07:28;4.00;;;1.30;;
62740;SDS011;48790;55.656;37.702;2022-07-29T12:09:55;2.55;;;1.30;;
62740;SDS011;48790;55.656;37.702;2022-07-29T12:12:21;1.90;;;1.17;;
62740;SDS011;48790;55.656;37.702;2022-07-29T12:14:48;4.75;;;1.30;;
62740;SDS011;48790;55.656;37.702;2022-07-29T12:17:26;5.03;;;1.60;;
62740;SDS011;48790;55.656;37.702;2022-07-29T12:19:53;4.40;;;1.20;;
62740;SDS011;48790;55.656;37.702;2022-07-29T12:22:27;1.30;;;1.10;;
62740;SDS011;48790;55.656;37.702;2022-07-29T12:24:54;3.38;;;1.50;;
62740;SDS011;48790;55.656;37.702;2022-07-29T12:27:21;4.00;;;1.20;;
62740;SDS011;48790;55.656;37.702;2022-07-29T12:29:57;4.75;;;1.30;;
62740;SDS011;48790;55.656;37.702;2022-07-29T12:32:32;1.77;;;1.00;;
62740;SDS011;48790;55.656;37.702;2022-07-29T12:35:17;5.00;;;1.00;;
62740;SDS011;48790;55.656;37.702;2022-07-29T12:37:47;1.73;;;0.90;;
62740;SDS011;48790;55.656;37.702;2022-07-29T12:40:17;3.00;;;1.10;;
62740;SDS011;48790;55.656;37.702;2022-07-29T12:45:35;4.93;;;1.20;;
62740;SDS011;48790;55.656;37.702;2022-07-29T12:48:06;2.25;;;1.42;;
62740;SDS011;48790;55.656;37.702;2022-07-29T12:50:51;5.55;;;1.20;;
62740;SDS011;48790;55.656;37.702;2022-07-29T12:53:18;3.63;;;1.15;;
62740;SDS011;48790;55.656;37.702;2022-07-29T12:55:48;5.22;;;1.33;;
62740;SDS011;48790;55.656;37.702;2022-07-29T13:11:48;1.83;;;1.40;;
62740;SDS011;48790;55.656;37.702;2022-07-29T13:14:35;5.80;;;1.33;;
62740;SDS011;48790;55.656;37.702;2022-07-29T13:19:41;7.85;;;1.40;;
62740;SDS011;48790;55.656;37.702;2022-07-29T13:22:12;7.18;;;1.30;;
62740;SDS011;48790;55.656;37.702;2022-07-29T13:27:20;2.38;;;1.20;;
62740;SDS011;48790;55.656;37.702;2022-07-29T13:29:55;3.47;;;1.20;;
62740;SDS011;48790;55.656;37.702;2022-07-29T13:32:23;2.33;;;1.05;;
62740;SDS011;48790;55.656;37.702;2022-07-29T13:34:51;3.63;;;1.40;;
62740;SDS011;48790;55.656;37.702;2022-07-29T13:37:23;1.55;;;1.15;;
62740;SDS011;48790;55.656;37.702;2022-07-29T13:39:52;3.15;;;1.40;;
62740;SDS011;48790;55.656;37.702;2022-07-29T13:42:19;5.03;;;1.20;;
62740;SDS011;48790;55.656;37.702;2022-07-29T13:44:45;6.95;;;1.88;;
62740;SDS011;48790;55.656;37.702;2022-07-29T13:47:14;8.60;;;1.50;;
62740;SDS011;48790;55.656;37.702;2022-07-29T13:49:41;2.65;;;1.45;;
62740;SDS011;48790;55.656;37.702;2022-07-29T13:52:11;5.10;;;1.45;;
62740;SDS011;48790;55.656;37.702;2022-07-29T13:54:37;2.70;;;1.55;;
62740;SDS011;48790;55.656;37.702;2022-07-29T13:57:04;1.33;;;1.20;;
62740;SDS011;48790;55.656;37.702;2022-07-29T13:59:30;4.88;;;1.52;;
62740;SDS011;48790;55.656;37.702;2022-07-29T14:01:59;2.25;;;1.30;;
62740;SDS011;48790;55.656;37.702;2022-07-29T14:04:25;4.05;;;1.35;;
62740;SDS011;48790;55.656;37.702;2022-07-29T14:06:51;4.78;;;1.65;;
62740;SDS011;48790;55.656;37.702;2022-07-29T14:09:17;4.15;;;1.60;;
62740;SDS011;48790;55.656;37.702;2022-07-29T14:11:44;5.22;;;1.65;;
62740;SDS011;48790;55.656;37.702;2022-07-29T14:14:12;4.60;;;1.52;;
62740;SDS011;48790;55.656;37.702;2022-07-29T14:16:38;2.45;;;1.30;;
62740;SDS011;48790;55.656;37.702;2022-07-29T14:19:04;6.32;;;1.33;;
62740;SDS011;48790;55.656;37.702;2022-07-29T14:21:31;3.80;;;1.40;;
62740;SDS011;48790;55.656;37.702;2022-07-29T14:23:58;4.45;;;1.48;;
62740;SDS011;48790;55.656;37.702;2022-07-29T14:26:24;3.78;;;1.52;;
62740;SDS011;48790;55.656;37.702;2022-07-29T14:28:50;4.95;;;1.50;;
62740;SDS011;48790;55.656;37.702;2022-07-29T14:31:16;4.55;;;1.50;;
62740;SDS011;48790;55.656;37.702;2022-07-29T14:33:43;4.93;;;1.65;;
62740;SDS011;48790;55.656;37.702;2022-07-29T14:36:09;3.05;;;1.30;;
62740;SDS011;48790;55.656;37.702;2022-07-29T14:38:38;6.18;;;1.50;;
62740;SDS011;48790;55.656;37.702;2022-07-29T14:41:06;6.10;;;1.60;;
62740;SDS011;48790;55.656;37.702;2022-07-29T14:43:33;8.20;;;1.80;;
62740;SDS011;48790;55.656;37.702;2022-07-29T14:46:00;5.70;;;1.95;;
62740;SDS011;48790;55.656;37.702;2022-07-29T14:48:26;3.72;;;1.75;;
62740;SDS011;48790;55.656;37.702;2022-07-29T14:50:52;8.82;;;2.20;;
62740;SDS011;48790;55.656;37.702;2022-07-29T14:53:20;7.00;;;1.70;;
62740;SDS011;48790;55.656;37.702;2022-07-29T14:55:46;8.25;;;1.60;;
62740;SDS011;48790;55.656;37.702;2022-07-29T14:58:12;5.03;;;1.52;;
62740;SDS011;48790;55.656;37.702;2022-07-29T15:00:39;7.65;;;1.67;;
62740;SDS011;48790;55.656;37.702;2022-07-29T15:03:09;5.47;;;1.60;;
62740;SDS011;48790;55.656;37.702;2022-07-29T15:05:35;7.15;;;1.90;;
62740;SDS011;48790;55.656;37.702;2022-07-29T15:08:02;10.85;;;2.17;;
62740;SDS011;48790;55.656;37.702;2022-07-29T15:10:28;6.18;;;1.92;;
62740;SDS011;48790;55.656;37.702;2022-07-29T15:12:54;5.20;;;1.90;;
62740;SDS011;48790;55.656;37.702;2022-07-29T15:15:20;5.18;;;1.85;;
62740;SDS011;48790;55.656;37.702;2022-07-29T15:17:46;8.95;;;1.90;;
62740;SDS011;48790;55.656;37.702;2022-07-29T15:20:13;5.13;;;1.85;;
62740;SDS011;48790;55.656;37.702;2022-07-29T15:22:39;2.30;;;1.50;;
62740;SDS011;48790;55.656;37.702;2022-07-29T15:25:07;5.32;;;1.77;;
62740;SDS011;48790;55.656;37.702;2022-07-29T15:27:34;5.28;;;1.73;;
62740;SDS011;48790;55.656;37.702;2022-07-29T15:30:00;6.93;;;1.50;;
62740;SDS011;48790;55.656;37.702;2022-07-29T15:32:26;1.65;;;1.42;;
62740;SDS011;48790;55.656;37.702;2022-07-29T15:34:52;7.20;;;1.60;;
62740;SDS011;48790;55.656;37.702;2022-07-29T15:37:18;8.90;;;2.28;;
62740;SDS011;48790;55.656;37.702;2022-07-29T15:39:44;6.93;;;1.75;;
62740;SDS011;48790;55.656;37.702;2022-07-29T15:42:11;6.20;;;1.83;;
62740;SDS011;48790;55.656;37.702;2022-07-29T15:44:37;3.80;;;1.50;;
62740;SDS011;48790;55.656;37.702;2022-07-29T15:47:03;1.65;;;1.30;;
62740;SDS011;48790;55.656;37.702;2022-07-29T15:49:33;4.72;;;1.50;;
62740;SDS011;48790;55.656;37.702;2022-07-29T15:52:04;4.10;;;1.65;;
62740;SDS011;48790;55.656;37.702;2022-07-29T15:54:32;4.35;;;1.50;;
62740;SDS011;48790;55.656;37.702;2022-07-29T15:57:00;5.82;;;1.70;;
62740;SDS011;48790;55.656;37.702;2022-07-29T15:59:26;3.38;;;2.10;;
62740;SDS011;48790;55.656;37.702;2022-07-29T16:01:52;6.18;;;2.10;;
62740;SDS011;48790;55.656;37.702;2022-07-29T16:04:18;10.95;;;2.80;;
62740;SDS011;48790;55.656;37.702;2022-07-29T16:06:45;7.00;;;2.30;;
62740;SDS011;48790;55.656;37.702;2022-07-29T16:09:12;6.85;;;2.13;;
62740;SDS011;48790;55.656;37.702;2022-07-29T16:11:39;5.30;;;1.90;;
62740;SDS011;48790;55.656;37.702;2022-07-29T16:14:05;6.75;;;1.83;;